ADDS METAR Data INFO
IDs: Format: Raw Decoded Include TAF

Data at: 0731 UTC 18 Oct 2017

METAR for:KTPA (Tampa Intl Arpt, FL, US)
Text:KTPA 180653Z 03008KT 10SM CLR 22/18 A3007 RMK AO2 SLP180 T02170183 $
Temperature: 21.7°C ( 71°F)
Dewpoint: 18.3°C ( 65°F) [RH = 81%]
Pressure (altimeter):30.07 inches Hg (1018.4 mb) [Sea level pressure: 1018.0 mb]
Winds:from the NNE (30 degrees) at 9 MPH (8 knots; 4.1 m/s)
Visibility:10 or more sm (16+ km)
Ceiling:at least 12,000 feet AGL
Clouds:sky clear below 12,000 feet AGL
QC Flag:SOME DATA ABOVE MAY BE INACCURATE!!!"$" is an indication the sensor requires maintenance.